Time;durP1;ratioP1;P1;durP2;ratioP2;P2;SDS_P1;SDS_P2;PMS_P1;PMS_P2;Temp;Humidity;BMP_temperature;BMP_pressure;BME280_temperature;BME280_humidity;BME280_pressure;Samples;Min_cycle;Max_cycle;Signal;HPM_P1;HPM_P2
2022/08/27 00:01:26;;;;;;;13.70;12.30;;;;;;;;;;5030691;28;24891;-48
2022/08/27 00:03:55;;;;;;;12.90;11.60;;;;;;;;;;5035804;28;24441;-47
2022/08/27 00:06:20;;;;;;;13.35;12.00;;;;;;;;;;5043333;28;24465;-48
2022/08/27 00:08:46;;;;;;;12.88;11.57;;;;;;;;;;5025341;28;24993;-47
2022/08/27 00:11:12;;;;;;;11.93;10.75;;;;;;;;;;5040848;28;25034;-48
2022/08/27 00:13:37;;;;;;;12.43;11.27;;;;;;;;;;5033808;28;24424;-48
2022/08/27 00:16:05;;;;;;;12.35;10.70;;;;;;;;;;5037316;28;24962;-48
2022/08/27 00:18:30;;;;;;;12.03;10.87;;;;;;;;;;5028970;28;24435;-48
2022/08/27 00:20:55;;;;;;;13.77;12.27;;;;;;;;;;5046341;28;25046;-48
2022/08/27 00:23:20;;;;;;;12.10;11.15;;;;;;;;;;5035415;28;24426;-47
2022/08/27 00:25:46;;;;;;;13.40;12.00;;;;;;;;;;5043386;28;24498;-48
2022/08/27 00:28:11;;;;;;;12.80;11.60;;;;;;;;;;5033587;28;24778;-46
2022/08/27 00:30:36;;;;;;;11.30;10.20;;;;;;;;;;5034417;28;24514;-47
2022/08/27 00:33:03;;;;;;;12.60;11.40;;;;;;;;;;5039199;28;24427;-48
2022/08/27 00:35:28;;;;;;;11.80;10.65;;;;;;;;;;5040448;28;24488;-47
2022/08/27 00:37:53;;;;;;;13.47;12.07;;;;;;;;;;5032746;28;24423;-47
2022/08/27 00:40:20;;;;;;;12.20;11.00;;;;;;;;;;5032225;28;24838;-46
2022/08/27 00:42:45;;;;;;;11.82;10.73;;;;;;;;;;5034073;28;24837;-46
2022/08/27 00:45:12;;;;;;;12.10;10.90;;;;;;;;;;5031647;28;24969;-48
2022/08/27 00:47:41;;;;;;;12.48;11.38;;;;;;;;;;5042674;28;24983;-47
2022/08/27 00:50:09;;;;;;;12.00;10.90;;;;;;;;;;5039579;28;24735;-46
2022/08/27 00:52:53;;;;;;;12.13;10.93;;;;;;;;;;5040181;28;24595;-47
2022/08/27 00:55:20;;;;;;;12.10;10.90;;;;;;;;;;5038840;28;24428;-47
2022/08/27 00:57:48;;;;;;;11.77;10.63;;;;;;;;;;5032670;28;24430;-48
2022/08/27 01:00:16;;;;;;;11.23;10.25;;;;;;;;;;5030230;28;24431;-47
2022/08/27 01:02:42;;;;;;;13.35;12.18;;;;;;;;;;5030539;28;24500;-46
2022/08/27 01:05:08;;;;;;;13.25;11.95;;;;;;;;;;5038881;28;24530;-46
2022/08/27 01:07:36;;;;;;;12.15;10.85;;;;;;;;;;5031408;28;24565;-47
2022/08/27 01:10:03;;;;;;;12.32;11.05;;;;;;;;;;5038678;28;24486;-46
2022/08/27 01:12:30;;;;;;;12.85;11.55;;;;;;;;;;5032869;28;24419;-47
2022/08/27 01:14:55;;;;;;;12.20;11.00;;;;;;;;;;5040478;28;24502;-46
2022/08/27 01:17:20;;;;;;;12.20;11.00;;;;;;;;;;5040372;28;24573;-46
2022/08/27 01:19:51;;;;;;;12.30;11.10;;;;;;;;;;5033012;28;25013;-47
2022/08/27 01:22:34;;;;;;;12.45;11.15;;;;;;;;;;5032698;28;24523;-48
2022/08/27 01:25:03;;;;;;;12.05;11.00;;;;;;;;;;5034421;28;24791;-48
2022/08/27 01:27:30;;;;;;;11.25;10.25;;;;;;;;;;5037419;28;24979;-50
2022/08/27 01:29:55;;;;;;;11.07;9.90;;;;;;;;;;5032261;28;24896;-48
2022/08/27 01:32:22;;;;;;;11.77;9.77;;;;;;;;;;5044312;28;25015;-48
2022/08/27 01:34:47;;;;;;;10.70;9.60;;;;;;;;;;5042023;28;24543;-48
2022/08/27 01:37:13;;;;;;;10.57;9.57;;;;;;;;;;5035943;28;24522;-47
2022/08/27 01:39:40;;;;;;;11.67;10.57;;;;;;;;;;5030004;28;24502;-47
2022/08/27 01:42:06;;;;;;;11.27;10.27;;;;;;;;;;5034061;28;24502;-48
2022/08/27 01:44:45;;;;;;;10.98;10.00;;;;;;;;;;5035662;28;24474;-47
2022/08/27 01:47:11;;;;;;;11.27;10.10;;;;;;;;;;5026554;28;24499;-47
2022/08/27 01:49:36;;;;;;;10.17;9.27;;;;;;;;;;5041223;28;25050;-48
2022/08/27 01:52:01;;;;;;;10.23;9.33;;;;;;;;;;5045213;28;25034;-48
2022/08/27 01:54:26;;;;;;;11.03;9.93;;;;;;;;;;5035983;28;24430;-48
2022/08/27 01:56:51;;;;;;;10.18;9.07;;;;;;;;;;5031120;28;24455;-48
2022/08/27 01:59:16;;;;;;;11.00;10.10;;;;;;;;;;5037018;28;24426;-47
2022/08/27 02:01:41;;;;;;;10.57;9.13;;;;;;;;;;5035260;28;24458;-48
2022/08/27 02:04:07;;;;;;;11.60;10.43;;;;;;;;;;5043829;28;24872;-48
2022/08/27 02:06:32;;;;;;;10.55;9.50;;;;;;;;;;5035293;28;24424;-47
2022/08/27 02:08:57;;;;;;;11.20;10.10;;;;;;;;;;5040836;28;24859;-48
2022/08/27 02:11:22;;;;;;;11.70;10.70;;;;;;;;;;5035933;28;24427;-48
2022/08/27 02:13:48;;;;;;;10.57;9.67;;;;;;;;;;5037376;28;24423;-47
2022/08/27 02:16:13;;;;;;;10.80;9.80;;;;;;;;;;5038704;28;24489;-47
2022/08/27 02:18:38;;;;;;;10.83;9.93;;;;;;;;;;5032533;28;24569;-47
2022/08/27 02:21:04;;;;;;;12.13;9.70;;;;;;;;;;5032641;28;24476;-47
2022/08/27 02:23:29;;;;;;;10.77;9.70;;;;;;;;;;5043958;28;24527;-47
2022/08/27 02:25:54;;;;;;;10.20;9.30;;;;;;;;;;5034909;28;24431;-49
2022/08/27 02:28:19;;;;;;;9.97;9.07;;;;;;;;;;5029103;28;24427;-48
2022/08/27 02:30:44;;;;;;;10.40;9.50;;;;;;;;;;5039615;28;24526;-48
2022/08/27 02:33:10;;;;;;;10.93;9.93;;;;;;;;;;5035679;28;24424;-47
2022/08/27 02:35:41;;;;;;;11.40;10.30;;;;;;;;;;5037839;28;24422;-47
2022/08/27 02:38:07;;;;;;;11.18;10.07;;;;;;;;;;5035969;28;25195;-47
2022/08/27 02:40:32;;;;;;;10.53;9.57;;;;;;;;;;5039397;28;24581;-47
2022/08/27 02:42:57;;;;;;;11.70;10.55;;;;;;;;;;5043412;28;24980;-48
2022/08/27 02:45:22;;;;;;;11.15;10.15;;;;;;;;;;5038913;28;24697;-47
2022/08/27 02:47:48;;;;;;;10.50;9.50;;;;;;;;;;5034260;28;24888;-48
2022/08/27 02:50:13;;;;;;;10.67;9.77;;;;;;;;;;5043555;28;25129;-47
2022/08/27 02:52:38;;;;;;;10.80;9.70;;;;;;;;;;5043649;28;24621;-47
2022/08/27 02:55:04;;;;;;;11.50;10.50;;;;;;;;;;5038022;28;24995;-47
2022/08/27 02:57:30;;;;;;;11.60;10.43;;;;;;;;;;5041630;28;24474;-47
2022/08/27 02:59:55;;;;;;;11.35;10.20;;;;;;;;;;5030586;28;24500;-47
2022/08/27 03:02:20;;;;;;;11.43;10.43;;;;;;;;;;5031715;28;25013;-48
2022/08/27 03:04:46;;;;;;;12.27;11.07;;;;;;;;;;5037946;28;25039;-48
2022/08/27 03:07:11;;;;;;;11.70;10.70;;;;;;;;;;5030716;28;24455;-48
2022/08/27 03:09:36;;;;;;;12.60;11.30;;;;;;;;;;5042384;28;24427;-48
2022/08/27 03:12:02;;;;;;;12.43;11.23;;;;;;;;;;5032883;28;24492;-48
2022/08/27 03:14:27;;;;;;;11.70;10.60;;;;;;;;;;5038716;28;24432;-48
2022/08/27 03:16:53;;;;;;;11.07;10.10;;;;;;;;;;5040219;28;24969;-48
2022/08/27 03:19:18;;;;;;;10.15;9.20;;;;;;;;;;5041533;28;24961;-48
2022/08/27 03:21:43;;;;;;;7.95;7.30;;;;;;;;;;5042215;28;24492;-47
2022/08/27 03:24:08;;;;;;;7.50;6.90;;;;;;;;;;5034184;28;24419;-48
2022/08/27 03:26:33;;;;;;;7.67;6.97;;;;;;;;;;5036759;28;24473;-47
2022/08/27 03:28:59;;;;;;;7.28;6.68;;;;;;;;;;5038726;28;24497;-48
2022/08/27 03:31:28;;;;;;;7.23;6.53;;;;;;;;;;5043267;28;24435;-47
2022/08/27 03:33:58;;;;;;;7.60;6.25;;;;;;;;;;5036113;28;24818;-48
2022/08/27 03:36:24;;;;;;;7.30;6.60;;;;;;;;;;5042958;28;24546;-48
2022/08/27 03:38:49;;;;;;;7.30;6.60;;;;;;;;;;5041211;28;24474;-48
2022/08/27 03:41:15;;;;;;;7.40;6.60;;;;;;;;;;5034585;28;24825;-49
2022/08/27 03:43:40;;;;;;;7.50;6.70;;;;;;;;;;5043269;28;24427;-47
2022/08/27 03:46:06;;;;;;;7.70;6.40;;;;;;;;;;5031855;28;24450;-48
2022/08/27 03:48:32;;;;;;;7.20;6.47;;;;;;;;;;5030433;28;24975;-48
2022/08/27 03:50:58;;;;;;;6.77;6.17;;;;;;;;;;5035819;28;24436;-48
2022/08/27 03:53:23;;;;;;;7.27;6.43;;;;;;;;;;5033737;28;24430;-48
2022/08/27 03:55:48;;;;;;;6.90;6.20;;;;;;;;;;5037101;28;24427;-48
2022/08/27 03:58:14;;;;;;;7.60;6.43;;;;;;;;;;5036841;28;25086;-48
2022/08/27 04:00:40;;;;;;;6.87;6.27;;;;;;;;;;5041387;28;24414;-48
2022/08/27 04:03:05;;;;;;;6.97;6.28;;;;;;;;;;5041665;28;24961;-49
2022/08/27 04:05:32;;;;;;;6.80;6.20;;;;;;;;;;5034502;28;24431;-48
2022/08/27 04:07:57;;;;;;;6.30;5.80;;;;;;;;;;5042545;28;24439;-47
2022/08/27 04:10:22;;;;;;;7.10;6.00;;;;;;;;;;5033367;28;24563;-48
2022/08/27 04:12:48;;;;;;;6.83;5.77;;;;;;;;;;5028976;28;24902;-47
2022/08/27 04:15:13;;;;;;;7.53;6.83;;;;;;;;;;5038858;28;24426;-48
2022/08/27 04:17:38;;;;;;;7.47;6.78;;;;;;;;;;5031566;28;24468;-47
2022/08/27 04:20:04;;;;;;;6.97;6.28;;;;;;;;;;5038973;28;24435;-48
2022/08/27 04:22:30;;;;;;;6.72;6.22;;;;;;;;;;5033959;28;24411;-47
2022/08/27 04:24:55;;;;;;;8.70;7.90;;;;;;;;;;5035051;28;25124;-47
2022/08/27 04:27:20;;;;;;;9.43;7.20;;;;;;;;;;5031359;28;24424;-48
2022/08/27 04:29:46;;;;;;;9.68;7.88;;;;;;;;;;5031560;28;24615;-47
2022/08/27 04:32:11;;;;;;;10.00;8.40;;;;;;;;;;5031770;28;24437;-48
2022/08/27 04:34:37;;;;;;;9.20;7.83;;;;;;;;;;5036427;28;24444;-47
2022/08/27 04:37:02;;;;;;;8.47;7.67;;;;;;;;;;5033857;28;24431;-48
2022/08/27 04:39:28;;;;;;;11.27;9.98;;;;;;;;;;5037517;28;24480;-47
2022/08/27 04:41:58;;;;;;;12.07;10.30;;;;;;;;;;5042224;28;25060;-48
2022/08/27 04:44:24;;;;;;;12.55;11.10;;;;;;;;;;5029138;28;24428;-47
2022/08/27 04:46:53;;;;;;;13.60;12.18;;;;;;;;;;5036935;28;24996;-47
2022/08/27 04:49:18;;;;;;;14.07;12.38;;;;;;;;;;5032636;28;24787;-48
2022/08/27 04:51:43;;;;;;;13.30;11.90;;;;;;;;;;5041743;28;25046;-48
2022/08/27 04:54:09;;;;;;;13.83;12.43;;;;;;;;;;5037403;28;24413;-48
2022/08/27 04:56:34;;;;;;;14.27;12.88;;;;;;;;;;5037659;28;25003;-47
2022/08/27 04:59:02;;;;;;;12.45;11.23;;;;;;;;;;5042972;28;24404;-47
2022/08/27 05:01:27;;;;;;;12.27;11.07;;;;;;;;;;5032008;28;24821;-48
2022/08/27 05:03:53;;;;;;;11.00;9.90;;;;;;;;;;5043907;28;24461;-48
2022/08/27 05:06:18;;;;;;;9.95;8.10;;;;;;;;;;5034273;28;24522;-46
2022/08/27 05:08:44;;;;;;;9.52;8.18;;;;;;;;;;5033371;28;24485;-47
2022/08/27 05:11:11;;;;;;;7.50;6.80;;;;;;;;;;5033463;28;24474;-47
2022/08/27 05:13:37;;;;;;;9.07;8.18;;;;;;;;;;5032857;28;24789;-48
2022/08/27 05:16:05;;;;;;;9.87;8.90;;;;;;;;;;5046030;28;24493;-48
2022/08/27 05:18:30;;;;;;;7.13;6.43;;;;;;;;;;5039498;28;24423;-47
2022/08/27 05:20:57;;;;;;;10.10;6.83;;;;;;;;;;5044395;28;24409;-46
2022/08/27 05:23:22;;;;;;;7.57;6.88;;;;;;;;;;5035012;28;24965;-46
2022/08/27 05:25:48;;;;;;;7.57;6.87;;;;;;;;;;5031239;28;24481;-47
2022/08/27 05:28:14;;;;;;;7.57;6.88;;;;;;;;;;5034697;28;25390;-47
2022/08/27 05:30:42;;;;;;;7.80;7.10;;;;;;;;;;5038433;28;24458;-48
2022/08/27 05:33:08;;;;;;;9.00;8.20;;;;;;;;;;5035825;28;24903;-47
2022/08/27 05:35:38;;;;;;;10.60;9.30;;;;;;;;;;5041594;28;24423;-48
2022/08/27 05:38:04;;;;;;;10.57;9.30;;;;;;;;;;5040720;28;24451;-48
2022/08/27 05:40:29;;;;;;;8.93;8.03;;;;;;;;;;5036400;28;24446;-48
2022/08/27 05:42:54;;;;;;;8.80;8.00;;;;;;;;;;5044006;28;24895;-47
2022/08/27 05:45:19;;;;;;;9.93;8.93;;;;;;;;;;5035399;28;24419;-48
2022/08/27 05:47:44;;;;;;;9.90;8.90;;;;;;;;;;5028109;28;24457;-47
2022/08/27 05:50:09;;;;;;;10.03;9.03;;;;;;;;;;5041233;28;24418;-47
2022/08/27 05:52:35;;;;;;;11.18;10.07;;;;;;;;;;5042720;28;24422;-47
2022/08/27 05:55:00;;;;;;;10.77;9.67;;;;;;;;;;5045133;28;24533;-48
2022/08/27 05:57:25;;;;;;;15.57;12.73;;;;;;;;;;5041054;28;24427;-47
2022/08/27 06:02:36;;;;;;;17.40;14.70;;;;;;;;;;5044770;28;24427;-47
2022/08/27 06:05:02;;;;;;;15.50;13.90;;;;;;;;;;5038923;28;24528;-48
2022/08/27 06:07:28;;;;;;;14.60;13.20;;;;;;;;;;5039619;28;24512;-47
2022/08/27 06:09:53;;;;;;;17.52;15.63;;;;;;;;;;5047823;28;24464;-46
2022/08/27 06:12:19;;;;;;;14.43;13.10;;;;;;;;;;5048811;28;24458;-48
2022/08/27 06:14:44;;;;;;;16.57;14.93;;;;;;;;;;5046536;28;24419;-47
2022/08/27 06:17:09;;;;;;;15.70;14.10;;;;;;;;;;5038821;28;24786;-46
2022/08/27 06:19:35;;;;;;;17.23;15.37;;;;;;;;;;5044658;28;24959;-46
2022/08/27 06:22:01;;;;;;;17.08;15.27;;;;;;;;;;5045690;28;24514;-47
2022/08/27 06:24:26;;;;;;;16.40;14.73;;;;;;;;;;5035112;28;24427;-48
2022/08/27 06:26:52;;;;;;;15.30;13.80;;;;;;;;;;5047147;28;24427;-47
2022/08/27 06:29:18;;;;;;;14.73;13.32;;;;;;;;;;5039959;28;24423;-47
2022/08/27 06:31:43;;;;;;;16.13;14.43;;;;;;;;;;5048799;28;24418;-47
2022/08/27 06:34:08;;;;;;;14.30;13.00;;;;;;;;;;5035212;28;24461;-49
2022/08/27 06:37:06;;;;;;;16.60;14.90;;;;;;;;;;5039064;28;24458;-48
2022/08/27 06:39:31;;;;;;;15.60;14.00;;;;;;;;;;5046068;28;24442;-47
2022/08/27 06:41:56;;;;;;;15.33;13.73;;;;;;;;;;5046426;28;24519;-47
2022/08/27 06:44:23;;;;;;;16.33;14.75;;;;;;;;;;5045271;28;24423;-48
2022/08/27 06:46:48;;;;;;;17.35;15.60;;;;;;;;;;5029603;28;24412;-48
2022/08/27 06:49:13;;;;;;;16.70;14.90;;;;;;;;;;5042367;28;24477;-47
2022/08/27 06:51:39;;;;;;;15.07;13.68;;;;;;;;;;5054109;28;25003;-47
2022/08/27 06:54:05;;;;;;;14.88;13.48;;;;;;;;;;5051475;28;25007;-48
2022/08/27 06:56:31;;;;;;;14.00;12.70;;;;;;;;;;5047684;28;24432;-47
2022/08/27 06:58:57;;;;;;;13.53;12.23;;;;;;;;;;5046401;28;24423;-47
2022/08/27 07:01:33;;;;;;;12.80;11.70;;;;;;;;;;5045324;28;24438;-48
2022/08/27 07:04:00;;;;;;;13.30;12.10;;;;;;;;;;5042350;28;24897;-47
2022/08/27 07:06:26;;;;;;;13.15;11.88;;;;;;;;;;5043288;28;24976;-47
2022/08/27 07:08:51;;;;;;;12.65;11.40;;;;;;;;;;5040005;28;24470;-47
2022/08/27 07:11:16;;;;;;;12.40;11.20;;;;;;;;;;5030919;28;24523;-48
2022/08/27 07:13:41;;;;;;;13.23;12.03;;;;;;;;;;5037088;28;24429;-47
2022/08/27 07:16:10;;;;;;;12.90;11.60;;;;;;;;;;5040087;28;24781;-47
2022/08/27 07:18:37;;;;;;;12.68;11.55;;;;;;;;;;5043866;28;24480;-47
2022/08/27 07:21:05;;;;;;;11.70;10.60;;;;;;;;;;5052739;28;24415;-48
2022/08/27 07:23:31;;;;;;;12.55;11.45;;;;;;;;;;5061137;28;24422;-47
2022/08/27 07:25:57;;;;;;;12.73;11.52;;;;;;;;;;5059300;28;24506;-47
2022/08/27 07:28:22;;;;;;;12.83;11.63;;;;;;;;;;5061186;28;24502;-47
2022/08/27 07:30:47;;;;;;;12.80;11.50;;;;;;;;;;5048776;28;24438;-47
2022/08/27 07:33:12;;;;;;;11.43;10.43;;;;;;;;;;5045115;28;24391;-49
2022/08/27 07:35:38;;;;;;;13.63;12.33;;;;;;;;;;5038843;28;24488;-47
2022/08/27 07:38:03;;;;;;;14.10;12.60;;;;;;;;;;5045210;28;24434;-47
2022/08/27 07:40:28;;;;;;;12.15;10.95;;;;;;;;;;5031417;28;24408;-47
2022/08/27 07:45:44;;;;;;;12.05;10.95;;;;;;;;;;5055854;28;24962;-50
2022/08/27 07:48:10;;;;;;;13.45;12.15;;;;;;;;;;5044445;28;24428;-47
2022/08/27 07:50:35;;;;;;;15.33;12.77;;;;;;;;;;5047538;28;24449;-46
2022/08/27 07:53:00;;;;;;;13.00;11.90;;;;;;;;;;5046823;28;24478;-46
2022/08/27 07:55:25;;;;;;;14.23;12.83;;;;;;;;;;5041091;28;24972;-47
2022/08/27 07:57:51;;;;;;;15.50;14.00;;;;;;;;;;5047630;28;24507;-45
2022/08/27 08:00:16;;;;;;;15.75;13.00;;;;;;;;;;5045890;28;24447;-48
2022/08/27 08:02:43;;;;;;;15.40;13.80;;;;;;;;;;5026206;28;24435;-46
2022/08/27 08:05:09;;;;;;;14.80;13.30;;;;;;;;;;5042322;28;24426;-49
2022/08/27 08:07:34;;;;;;;18.00;16.17;;;;;;;;;;5050507;28;24789;-48
2022/08/27 08:09:59;;;;;;;15.97;14.00;;;;;;;;;;5028420;28;24440;-47
2022/08/27 08:12:25;;;;;;;15.50;13.80;;;;;;;;;;5033421;28;24428;-48
2022/08/27 08:14:54;;;;;;;17.73;15.93;;;;;;;;;;5039748;28;24484;-48
2022/08/27 08:17:20;;;;;;;17.50;15.52;;;;;;;;;;5044045;28;24558;-47
2022/08/27 08:19:45;;;;;;;16.75;15.02;;;;;;;;;;5037084;28;24511;-48
2022/08/27 08:22:10;;;;;;;16.73;15.03;;;;;;;;;;5026159;28;24863;-49
2022/08/27 08:24:35;;;;;;;17.67;15.75;;;;;;;;;;5027693;28;24547;-48
2022/08/27 08:27:01;;;;;;;17.40;15.60;;;;;;;;;;5045940;28;24501;-54
2022/08/27 08:29:26;;;;;;;16.58;14.88;;;;;;;;;;5044975;28;24549;-48
2022/08/27 08:31:51;;;;;;;17.52;15.73;;;;;;;;;;5044630;28;24398;-48
2022/08/27 08:34:17;;;;;;;16.35;14.65;;;;;;;;;;5045022;28;24428;-48
2022/08/27 08:36:42;;;;;;;17.48;15.63;;;;;;;;;;5043880;28;24435;-48
2022/08/27 08:39:07;;;;;;;18.30;16.40;;;;;;;;;;5044735;28;24929;-48
2022/08/27 08:41:37;;;;;;;16.58;14.98;;;;;;;;;;5044111;28;24423;-48
2022/08/27 08:44:07;;;;;;;16.85;15.05;;;;;;;;;;5043338;28;25213;-48
2022/08/27 08:46:36;;;;;;;16.50;14.80;;;;;;;;;;5052263;28;24456;-48
2022/08/27 08:49:15;;;;;;;16.50;14.80;;;;;;;;;;5029981;28;24486;-47
2022/08/27 08:51:40;;;;;;;17.92;16.23;;;;;;;;;;5042484;28;24449;-48
2022/08/27 08:54:08;;;;;;;15.15;13.75;;;;;;;;;;5043030;28;25019;-48
2022/08/27 08:56:39;;;;;;;15.55;14.05;;;;;;;;;;5051446;28;24415;-48
2022/08/27 08:59:09;;;;;;;15.53;14.03;;;;;;;;;;5047831;28;24432;-48
2022/08/27 09:01:34;;;;;;;14.70;13.30;;;;;;;;;;5047626;28;24466;-49
2022/08/27 09:04:01;;;;;;;14.10;12.80;;;;;;;;;;5051338;28;24828;-48
2022/08/27 09:06:42;;;;;;;12.95;11.63;;;;;;;;;;5058126;28;24494;-47
2022/08/27 09:09:15;;;;;;;13.77;12.48;;;;;;;;;;5040760;28;24542;-48
2022/08/27 09:11:49;;;;;;;13.18;11.98;;;;;;;;;;5044184;28;24419;-48
2022/08/27 09:14:34;;;;;;;12.77;11.47;;;;;;;;;;5049778;28;25023;-48
2022/08/27 09:17:00;;;;;;;11.50;10.37;;;;;;;;;;5037304;28;24605;-48
2022/08/27 09:19:26;;;;;;;11.80;10.80;;;;;;;;;;5047668;28;25058;-48
2022/08/27 09:22:18;;;;;;;11.93;10.82;;;;;;;;;;5041531;28;25204;-48
2022/08/27 09:24:49;;;;;;;12.15;11.07;;;;;;;;;;5051448;28;24763;-47
2022/08/27 09:27:14;;;;;;;11.40;10.20;;;;;;;;;;5037427;28;24412;-48
2022/08/27 09:29:48;;;;;;;11.60;10.40;;;;;;;;;;5048570;28;24902;-48
2022/08/27 09:32:13;;;;;;;11.27;10.25;;;;;;;;;;5036693;28;24538;-49
2022/08/27 09:34:40;;;;;;;11.57;10.57;;;;;;;;;;5039200;28;24547;-48
2022/08/27 09:37:07;;;;;;;11.13;10.15;;;;;;;;;;5041440;28;24427;-49
2022/08/27 09:39:34;;;;;;;11.15;10.20;;;;;;;;;;5048156;28;24430;-48
2022/08/27 09:42:00;;;;;;;11.90;10.80;;;;;;;;;;5055624;28;24427;-48
2022/08/27 09:44:26;;;;;;;10.98;9.98;;;;;;;;;;5048139;28;24429;-48
2022/08/27 09:47:01;;;;;;;10.10;9.20;;;;;;;;;;5057510;28;24423;-48
2022/08/27 09:49:27;;;;;;;10.20;9.30;;;;;;;;;;5051548;28;24998;-49
2022/08/27 09:51:53;;;;;;;9.40;8.60;;;;;;;;;;5042403;28;24518;-47
2022/08/27 09:54:37;;;;;;;9.43;8.63;;;;;;;;;;5051768;28;24569;-48
2022/08/27 09:57:03;;;;;;;10.20;9.30;;;;;;;;;;5032477;28;24466;-48
2022/08/27 09:59:37;;;;;;;9.93;9.02;;;;;;;;;;5046413;28;24423;-48
2022/08/27 10:02:14;;;;;;;10.10;9.30;;;;;;;;;;5035750;28;24419;-48
2022/08/27 10:04:41;;;;;;;9.30;8.52;;;;;;;;;;5023669;28;24406;-48
2022/08/27 10:07:16;;;;;;;9.23;8.40;;;;;;;;;;5034971;28;24436;-48
2022/08/27 10:09:44;;;;;;;10.48;9.38;;;;;;;;;;5035024;28;24518;-48
2022/08/27 10:12:21;;;;;;;9.80;8.80;;;;;;;;;;5044627;28;24481;-49
2022/08/27 10:14:50;;;;;;;8.68;7.97;;;;;;;;;;5049227;28;24391;-49
2022/08/27 10:17:34;;;;;;;9.15;8.25;;;;;;;;;;5032424;28;24993;-48
2022/08/27 10:20:17;;;;;;;8.50;7.80;;;;;;;;;;5030492;28;24440;-48
2022/08/27 10:22:49;;;;;;;9.20;8.50;;;;;;;;;;5044274;28;24420;-48
2022/08/27 10:25:42;;;;;;;8.00;7.40;;;;;;;;;;5048819;28;24391;-49
2022/08/27 10:28:07;;;;;;;7.40;6.80;;;;;;;;;;5027216;28;25020;-48
2022/08/27 10:30:52;;;;;;;7.95;7.25;;;;;;;;;;5035605;28;25134;-48
2022/08/27 10:33:30;;;;;;;8.20;7.40;;;;;;;;;;5045934;28;24493;-48
2022/08/27 10:35:59;;;;;;;7.80;7.20;;;;;;;;;;5044122;28;24481;-48
2022/08/27 10:38:24;;;;;;;7.32;6.72;;;;;;;;;;5028640;28;24408;-48
2022/08/27 10:40:49;;;;;;;6.87;6.27;;;;;;;;;;5028468;28;24403;-48
2022/08/27 10:43:33;;;;;;;7.50;6.80;;;;;;;;;;5028597;28;24495;-48
2022/08/27 10:46:04;;;;;;;7.23;6.63;;;;;;;;;;5028425;28;24499;-48
2022/08/27 10:48:43;;;;;;;7.22;6.53;;;;;;;;;;5047399;28;24822;-48
2022/08/27 10:51:14;;;;;;;6.07;5.57;;;;;;;;;;5043655;28;24675;-49
2022/08/27 10:53:45;;;;;;;4.63;4.22;;;;;;;;;;5028431;28;24403;-49
2022/08/27 10:56:10;;;;;;;4.20;3.90;;;;;;;;;;5028281;28;24550;-49
2022/08/27 10:58:52;;;;;;;4.28;3.97;;;;;;;;;;5027989;28;24479;-49
2022/08/27 11:01:21;;;;;;;5.10;4.70;;;;;;;;;;5028646;28;24784;-49
2022/08/27 11:03:51;;;;;;;4.80;4.45;;;;;;;;;;5028023;28;24998;-48
2022/08/27 11:06:31;;;;;;;5.50;5.00;;;;;;;;;;5028324;28;25004;-48
2022/08/27 11:08:59;;;;;;;4.80;4.40;;;;;;;;;;5027948;28;24988;-48
2022/08/27 11:11:33;;;;;;;3.70;3.40;;;;;;;;;;5043723;28;24407;-48
2022/08/27 11:13:58;;;;;;;4.37;4.07;;;;;;;;;;5048249;28;25005;-48
2022/08/27 11:16:50;;;;;;;3.97;3.67;;;;;;;;;;5047832;28;24952;-49
2022/08/27 11:19:18;;;;;;;2.92;2.72;;;;;;;;;;5044144;28;24463;-48
2022/08/27 11:21:46;;;;;;;3.05;2.85;;;;;;;;;;5033981;28;24980;-48
2022/08/27 11:24:27;;;;;;;3.50;3.30;;;;;;;;;;5047591;28;24764;-49
2022/08/27 11:26:55;;;;;;;2.40;2.30;;;;;;;;;;5048090;28;24403;-49
2022/08/27 11:29:30;;;;;;;2.70;2.50;;;;;;;;;;5046951;28;24484;-49
2022/08/27 11:32:02;;;;;;;2.15;2.05;;;;;;;;;;5047613;28;24426;-48
2022/08/27 11:34:36;;;;;;;2.97;2.70;;;;;;;;;;5047285;28;25019;-49
2022/08/27 11:37:01;;;;;;;2.43;2.23;;;;;;;;;;5047502;28;24443;-48
2022/08/27 11:39:45;;;;;;;2.20;2.00;;;;;;;;;;5047929;28;24410;-49
2022/08/27 11:42:29;;;;;;;2.50;2.30;;;;;;;;;;5045622;28;24972;-47
2022/08/27 11:44:57;;;;;;;2.28;2.17;;;;;;;;;;5047486;28;24399;-49
2022/08/27 11:47:24;;;;;;;2.25;2.15;;;;;;;;;;5047058;28;24920;-48
2022/08/27 11:49:52;;;;;;;2.60;2.40;;;;;;;;;;5047491;28;24398;-47
2022/08/27 11:52:37;;;;;;;2.60;2.40;;;;;;;;;;5046275;28;24427;-47
2022/08/27 11:55:09;;;;;;;2.70;2.50;;;;;;;;;;5047386;28;25134;-47
2022/08/27 11:57:37;;;;;;;2.90;2.70;;;;;;;;;;5047049;28;24412;-48
2022/08/27 12:00:17;;;;;;;2.90;2.70;;;;;;;;;;5047129;28;24745;-48
2022/08/27 12:02:43;;;;;;;3.87;3.57;;;;;;;;;;5045628;28;25361;-48
2022/08/27 12:05:20;;;;;;;3.40;3.20;;;;;;;;;;5046799;28;24944;-49
2022/08/27 12:07:49;;;;;;;3.40;3.10;;;;;;;;;;5046988;28;24499;-48
2022/08/27 12:10:37;;;;;;;3.70;3.40;;;;;;;;;;5046710;28;25026;-48
2022/08/27 12:13:08;;;;;;;3.60;3.30;;;;;;;;;;5034043;28;24564;-48
2022/08/27 12:15:50;;;;;;;3.30;3.10;;;;;;;;;;5026454;28;24423;-47
2022/08/27 12:18:24;;;;;;;3.43;3.23;;;;;;;;;;5026889;28;24403;-48
2022/08/27 12:20:59;;;;;;;3.67;3.40;;;;;;;;;;5026192;28;24424;-48
2022/08/27 12:23:39;;;;;;;3.58;3.30;;;;;;;;;;5029591;28;25475;-48
2022/08/27 12:26:23;;;;;;;3.95;3.65;;;;;;;;;;5026497;28;24511;-48
2022/08/27 12:28:48;;;;;;;3.90;3.60;;;;;;;;;;5026542;28;24430;-48
2022/08/27 12:31:18;;;;;;;4.03;3.72;;;;;;;;;;5026940;28;24422;-48
2022/08/27 12:33:45;;;;;;;3.92;3.63;;;;;;;;;;5032562;28;24453;-48
2022/08/27 12:36:15;;;;;;;3.80;3.50;;;;;;;;;;5044496;28;24423;-48
2022/08/27 12:38:46;;;;;;;4.77;4.47;;;;;;;;;;5043418;28;24510;-49
2022/08/27 12:41:22;;;;;;;4.90;4.50;;;;;;;;;;5045184;28;25014;-49
2022/08/27 12:43:47;;;;;;;4.70;4.30;;;;;;;;;;5031952;28;24432;-48
2022/08/27 12:46:14;;;;;;;5.13;4.78;;;;;;;;;;5034480;28;24427;-49
2022/08/27 12:48:53;;;;;;;4.45;4.15;;;;;;;;;;5046137;28;24395;-49
2022/08/27 12:51:23;;;;;;;4.72;4.40;;;;;;;;;;5043522;28;24450;-48
2022/08/27 12:54:00;;;;;;;5.45;4.95;;;;;;;;;;5033978;28;24435;-48
2022/08/27 12:56:39;;;;;;;5.63;5.22;;;;;;;;;;5024090;28;24481;-48
2022/08/27 12:59:14;;;;;;;5.10;4.70;;;;;;;;;;5026509;28;24483;-49
2022/08/27 13:02:00;;;;;;;5.72;5.22;;;;;;;;;;5043617;28;24510;-49
2022/08/27 13:04:26;;;;;;;6.03;5.57;;;;;;;;;;5032334;28;24435;-49
2022/08/27 13:06:52;;;;;;;5.35;4.90;;;;;;;;;;5045799;28;24401;-49
2022/08/27 13:09:24;;;;;;;5.40;4.90;;;;;;;;;;5044873;28;24843;-48
2022/08/27 13:11:55;;;;;;;6.32;5.82;;;;;;;;;;5044659;28;24443;-49
2022/08/27 13:14:22;;;;;;;5.78;5.38;;;;;;;;;;5041276;28;24424;-48
2022/08/27 13:16:50;;;;;;;5.97;5.47;;;;;;;;;;5043221;28;24894;-48
2022/08/27 13:19:20;;;;;;;8.27;7.57;;;;;;;;;;5044926;28;24473;-48
2022/08/27 13:21:47;;;;;;;7.80;7.20;;;;;;;;;;5044073;28;24407;-48
2022/08/27 13:24:12;;;;;;;6.65;6.15;;;;;;;;;;5033901;28;24837;-48
2022/08/27 13:26:37;;;;;;;7.18;6.57;;;;;;;;;;5033551;28;24428;-48
2022/08/27 13:29:06;;;;;;;7.03;6.53;;;;;;;;;;5026216;28;24474;-48
2022/08/27 13:31:33;;;;;;;7.20;6.50;;;;;;;;;;5035144;28;24514;-48
2022/08/27 13:33:58;;;;;;;7.40;6.70;;;;;;;;;;5044804;28;24473;-48
2022/08/27 13:36:25;;;;;;;7.30;6.70;;;;;;;;;;5056586;28;24419;-48
2022/08/27 13:38:50;;;;;;;6.95;6.45;;;;;;;;;;5046025;28;24821;-48
2022/08/27 13:41:22;;;;;;;8.52;7.82;;;;;;;;;;5043899;28;24415;-48
2022/08/27 13:43:47;;;;;;;7.75;7.15;;;;;;;;;;5030740;28;24953;-48
2022/08/27 13:46:15;;;;;;;7.13;6.53;;;;;;;;;;5044381;28;24434;-49
2022/08/27 13:48:41;;;;;;;8.07;7.45;;;;;;;;;;5047145;28;24430;-47
2022/08/27 13:51:07;;;;;;;8.35;7.65;;;;;;;;;;5045280;28;24468;-48
2022/08/27 13:56:24;;;;;;;8.32;7.63;;;;;;;;;;5044824;28;24489;-48
2022/08/27 13:58:49;;;;;;;9.20;8.40;;;;;;;;;;5045977;28;25196;-48
2022/08/27 14:01:23;;;;;;;9.20;8.30;;;;;;;;;;5038105;28;24415;-48
2022/08/27 14:03:54;;;;;;;9.25;8.55;;;;;;;;;;5054030;28;24425;-48
2022/08/27 14:06:23;;;;;;;10.37;9.40;;;;;;;;;;5039193;28;24799;-48
2022/08/27 14:08:49;;;;;;;10.15;9.20;;;;;;;;;;5037383;28;24798;-47
2022/08/27 14:11:21;;;;;;;9.70;8.70;;;;;;;;;;5050276;28;24407;-48
2022/08/27 14:13:47;;;;;;;9.48;8.48;;;;;;;;;;5043964;28;24424;-47
2022/08/27 14:16:32;;;;;;;11.70;10.60;;;;;;;;;;5046598;28;24597;-48
2022/08/27 14:19:03;;;;;;;10.15;9.10;;;;;;;;;;5043422;28;24438;-48
2022/08/27 14:21:29;;;;;;;10.65;9.75;;;;;;;;;;5043343;28;24523;-49
2022/08/27 14:23:54;;;;;;;11.63;10.52;;;;;;;;;;5036641;28;24542;-47
2022/08/27 14:26:19;;;;;;;11.20;10.10;;;;;;;;;;5037746;28;24411;-48
2022/08/27 14:28:45;;;;;;;13.13;11.93;;;;;;;;;;5058254;28;25079;-48
2022/08/27 14:31:10;;;;;;;11.80;10.70;;;;;;;;;;5035993;28;24446;-47
2022/08/27 14:33:36;;;;;;;12.15;11.05;;;;;;;;;;5052210;28;24431;-48
2022/08/27 14:36:01;;;;;;;12.70;11.60;;;;;;;;;;5061893;28;24504;-48
2022/08/27 14:38:30;;;;;;;11.80;10.80;;;;;;;;;;5057535;28;24410;-48
2022/08/27 14:40:57;;;;;;;11.10;10.10;;;;;;;;;;5068495;28;24851;-48
2022/08/27 14:43:23;;;;;;;12.48;11.38;;;;;;;;;;5032487;28;24404;-48